createdAt,value
2018-02-18T00:04:39.406Z,2.47
2018-02-18T00:10:44.842Z,2.97
2018-02-18T00:16:49.501Z,2.77
2018-02-18T00:22:54.115Z,2.20
2018-02-18T00:28:58.761Z,2.47
2018-02-18T00:35:03.277Z,2.50
2018-02-18T00:41:07.916Z,3.40
2018-02-18T00:47:12.398Z,2.90
2018-02-18T00:53:17.008Z,2.70
2018-02-18T00:59:22.482Z,3.47
2018-02-18T01:05:26.955Z,2.77
2018-02-18T01:11:31.998Z,3.40
2018-02-18T01:17:36.471Z,3.70
2018-02-18T01:23:41.749Z,3.97
2018-02-18T01:29:46.359Z,4.77
2018-02-18T01:35:52.199Z,3.70
2018-02-18T01:41:56.791Z,3.30
2018-02-18T01:48:01.605Z,4.10
2018-02-18T01:54:06.085Z,4.33
2018-02-18T02:00:10.875Z,3.50
2018-02-18T02:06:15.603Z,3.07
2018-02-18T02:12:20.559Z,3.90
2018-02-18T02:18:25.368Z,3.23
2018-02-18T02:24:30.684Z,3.03
2018-02-18T02:30:35.324Z,3.10
2018-02-18T02:36:39.820Z,2.70
2018-02-18T02:42:45.109Z,3.00
2018-02-18T02:48:49.734Z,3.10
2018-02-18T02:54:54.397Z,2.40
2018-02-18T03:00:58.881Z,2.73
2018-02-18T03:07:03.420Z,2.17
2018-02-18T03:13:07.984Z,2.57
2018-02-18T03:19:12.584Z,3.50
2018-02-18T03:25:17.970Z,3.00
2018-02-18T03:31:22.644Z,3.40
2018-02-18T03:37:27.126Z,3.90
2018-02-18T03:43:31.640Z,3.10
2018-02-18T03:49:36.188Z,2.50
2018-02-18T03:55:40.655Z,2.03
2018-02-18T04:01:45.237Z,2.80
2018-02-18T04:07:50.193Z,3.33
2018-02-18T04:13:55.262Z,3.87
2018-02-18T04:19:59.761Z,4.10
2018-02-18T04:26:04.241Z,4.20
2018-02-18T04:32:08.727Z,3.60
2018-02-18T04:38:14.055Z,4.43
2018-02-18T04:44:18.837Z,3.83
2018-02-18T04:50:23.597Z,5.23
2018-02-18T04:56:28.182Z,7.20
2018-02-18T05:02:32.691Z,7.03
2018-02-18T05:08:37.452Z,8.00
2018-02-18T05:14:41.971Z,7.50
2018-02-18T05:20:46.495Z,6.60
2018-02-18T05:26:51.747Z,7.30
2018-02-18T05:32:56.510Z,6.33
2018-02-18T05:39:01.135Z,6.80
2018-02-18T05:45:05.743Z,8.90
2018-02-18T05:51:11.546Z,9.37
2018-02-18T05:57:16.117Z,7.90
2018-02-18T06:03:21.262Z,9.13
2018-02-18T06:09:25.919Z,8.33
2018-02-18T06:15:30.712Z,9.30
2018-02-18T06:21:36.170Z,8.90
2018-02-18T06:27:40.754Z,9.40
2018-02-18T06:33:45.263Z,9.67
2018-02-18T06:39:50.797Z,9.10
2018-02-18T06:58:55.355Z,7.60
2018-02-18T07:04:59.892Z,5.53
2018-02-18T07:11:05.216Z,6.50
2018-02-18T07:17:09.914Z,4.80
2018-02-18T07:23:14.408Z,9.73
2018-02-18T07:29:19.113Z,7.47
2018-02-18T07:35:23.749Z,6.00
2018-02-18T07:41:28.255Z,8.53
2018-02-18T07:47:32.887Z,10.30
2018-02-18T07:53:38.262Z,10.40
2018-02-18T07:59:42.798Z,9.97
2018-02-18T08:05:47.346Z,13.00
2018-02-18T08:11:53.756Z,10.37
2018-02-18T08:17:59.050Z,14.80
2018-02-18T08:24:04.347Z,12.10
2018-02-18T08:30:10.772Z,13.03
2018-02-18T08:36:15.272Z,15.00
2018-02-18T08:42:19.985Z,13.30
2018-02-18T08:48:24.524Z,11.70
2018-02-18T08:54:29.024Z,10.70
2018-02-18T09:00:33.761Z,11.33
2018-02-18T09:06:38.240Z,10.33
2018-02-18T09:12:43.570Z,11.63
2018-02-18T09:18:48.857Z,14.10
2018-02-18T09:24:53.761Z,15.30
2018-02-18T09:30:58.685Z,13.07
2018-02-18T09:37:03.477Z,10.97
2018-02-18T09:43:07.979Z,12.97
2018-02-18T09:49:13.238Z,11.33
2018-02-18T09:55:17.760Z,9.97
2018-02-18T10:01:22.575Z,9.57
2018-02-18T10:07:27.051Z,7.20
2018-02-18T10:13:31.533Z,7.17
2018-02-18T10:19:36.078Z,6.70
2018-02-18T10:25:41.468Z,5.70
2018-02-18T10:31:46.986Z,5.67
2018-02-18T10:37:51.595Z,7.30
2018-02-18T10:43:57.029Z,5.90
2018-02-18T10:50:03.013Z,7.30
2018-02-18T10:56:07.485Z,6.83
2018-02-18T11:02:12.265Z,7.97
2018-02-18T11:08:16.765Z,7.70
2018-02-18T11:14:22.004Z,8.00
2018-02-18T11:20:26.568Z,7.80
2018-02-18T11:26:31.053Z,8.70
2018-02-18T11:32:35.606Z,7.77
2018-02-18T11:38:40.184Z,9.00
2018-02-18T11:44:44.992Z,7.83
2018-02-18T11:50:50.504Z,8.43
2018-02-18T11:56:55.951Z,8.60
2018-02-18T12:03:00.469Z,7.93
2018-02-18T12:09:05.767Z,7.93
2018-02-18T12:15:10.558Z,7.60
2018-02-18T12:21:15.075Z,7.77
2018-02-18T12:27:19.707Z,7.97
2018-02-18T12:33:24.849Z,7.87
2018-02-18T12:39:29.323Z,7.33
2018-02-18T12:45:33.821Z,7.03
2018-02-18T12:51:38.289Z,8.73
2018-02-18T12:57:42.844Z,7.40
2018-02-18T13:03:48.201Z,6.67
2018-02-18T13:09:54.657Z,6.60
2018-02-18T13:15:59.258Z,6.20
2018-02-18T13:22:03.818Z,5.77
2018-02-18T13:28:08.320Z,6.10
2018-02-18T13:34:12.799Z,5.67
2018-02-18T13:40:17.271Z,5.93
2018-02-18T13:46:21.998Z,5.90
2018-02-18T13:52:26.474Z,5.70
2018-02-18T13:58:31.120Z,6.00
2018-02-18T14:04:35.619Z,5.30
2018-02-18T14:10:40.195Z,5.30
2018-02-18T14:16:44.967Z,5.20
2018-02-18T14:22:51.305Z,5.33
2018-02-18T14:28:55.895Z,5.30
2018-02-18T14:35:00.398Z,5.57
2018-02-18T14:41:05.641Z,6.50
2018-02-18T14:47:28.000Z,6.07
2018-02-18T14:53:50.280Z,6.33
2018-02-18T14:59:55.108Z,8.30
2018-02-18T15:05:59.753Z,6.77
2018-02-18T15:12:04.296Z,7.60
2018-02-18T15:18:09.691Z,9.20
2018-02-18T15:24:14.201Z,7.50
2018-02-18T15:30:19.654Z,6.50
2018-02-18T15:36:24.167Z,7.30
2018-02-18T15:42:28.647Z,7.77
2018-02-18T15:48:33.985Z,8.20
2018-02-18T15:54:38.503Z,8.30
2018-02-18T16:00:42.999Z,7.97
2018-02-18T16:06:48.302Z,7.80
2018-02-18T16:12:52.936Z,10.00
2018-02-18T16:18:57.446Z,8.33
2018-02-18T16:25:03.419Z,9.67
2018-02-18T16:31:07.883Z,9.53
2018-02-18T16:37:12.419Z,10.13
2018-02-18T16:43:16.988Z,9.30
2018-02-18T16:49:22.055Z,9.33
2018-02-18T16:55:26.714Z,10.23
2018-02-18T17:01:31.197Z,10.13
2018-02-18T17:07:35.739Z,10.40
2018-02-18T17:13:40.344Z,11.13
2018-02-18T17:19:44.989Z,10.37
2018-02-18T17:25:49.453Z,11.90
2018-02-18T17:31:54.228Z,11.10
2018-02-18T17:37:58.702Z,10.50
2018-02-18T17:44:03.206Z,10.20
2018-02-18T17:50:07.855Z,9.93
2018-02-18T17:56:12.444Z,10.77
2018-02-18T18:02:17.718Z,10.87
2018-02-18T18:08:22.419Z,10.23
2018-02-18T18:14:26.886Z,11.60
2018-02-18T18:20:31.487Z,11.90
2018-02-18T18:26:36.080Z,12.87
2018-02-18T18:32:41.827Z,12.53
2018-02-18T18:38:46.308Z,12.93
2018-02-18T18:44:51.011Z,12.60
2018-02-18T18:50:55.528Z,12.20
2018-02-18T18:57:00.780Z,12.20
2018-02-18T19:03:05.315Z,12.20
2018-02-18T19:09:09.912Z,13.23
2018-02-18T19:15:14.755Z,13.60
2018-02-18T19:21:19.411Z,13.93
2018-02-18T19:27:23.970Z,14.53
2018-02-18T19:33:28.469Z,15.27
2018-02-18T19:39:32.949Z,14.77
2018-02-18T19:45:37.453Z,13.40
2018-02-18T19:51:41.960Z,15.10
2018-02-18T19:57:46.431Z,15.40
2018-02-18T20:03:50.950Z,15.20
2018-02-18T20:09:55.461Z,15.17
2018-02-18T20:16:00.737Z,15.97
2018-02-18T20:22:05.199Z,14.00
2018-02-18T20:28:09.733Z,13.77
2018-02-18T20:34:14.264Z,14.70
2018-02-18T20:40:19.056Z,14.77
2018-02-18T20:46:23.756Z,13.10
2018-02-18T20:52:29.367Z,14.60
2018-02-18T20:58:34.916Z,14.73
2018-02-18T21:04:39.582Z,13.70
2018-02-18T21:10:44.195Z,14.07
2018-02-18T21:16:48.824Z,14.93
2018-02-18T21:22:54.384Z,15.80
2018-02-18T21:28:58.939Z,15.70
2018-02-18T21:35:03.426Z,14.93
2018-02-18T21:41:07.960Z,15.00
2018-02-18T21:47:13.207Z,15.80
2018-02-18T21:53:17.681Z,15.57
2018-02-18T21:59:22.202Z,17.83
2018-02-18T22:05:27.431Z,16.70
2018-02-18T22:11:31.972Z,16.10
2018-02-18T22:17:36.589Z,16.77
2018-02-18T22:23:41.117Z,14.57
2018-02-18T22:29:45.615Z,15.03
2018-02-18T22:35:50.877Z,17.20
2018-02-18T22:41:55.464Z,17.00
2018-02-18T22:48:00.031Z,17.23
2018-02-18T22:54:04.524Z,14.90
2018-02-18T23:00:09.003Z,16.70
2018-02-18T23:06:13.557Z,14.57
2018-02-18T23:12:18.051Z,16.30
2018-02-18T23:18:22.564Z,18.37
2018-02-18T23:24:27.048Z,17.97
2018-02-18T23:30:31.529Z,15.43
2018-02-18T23:36:35.996Z,14.40
2018-02-18T23:42:40.469Z,14.30
2018-02-18T23:48:44.943Z,15.70
2018-02-18T23:54:50.349Z,16.97
